Khanewal Weather



Khanewal's Current Weather

Temprature 14o smoke

smoke

Rain: 0 %

Min Temprature14o
Max Temprature14o
Humidity67
Wind Speed3.1 m/h
Sun Rise07:06:05
Sun Set17:43:23
Current Time: 27-Jan-2020 18:27:21
Lat/Lon: 30.3, 71.93




Khanewal's Geo Location



Khanewal's Weather Forecast

Time Overall Temp Min Temp Max Temp Humidity Wind Speed Rain
27-Jan-2020 (Mon)
20:00:00 broken clouds 10.780 10.780 11.930 82 4.34 m/h 0 %
23:00:00 broken clouds 9.920 9.920 10.780 87 3.29 m/h 0 %
28-Jan-2020 (Tue)
02:00:00 broken clouds 11.350 11.350 11.930 76 3 m/h 0 %
05:00:00 broken clouds 9.910 9.910 10.200 86 2.41 m/h 0 %
08:00:00 few clouds 10.950 10.950 10.950 82 3.31 m/h 0 %
11:00:00 scattered clouds 16.090 16.090 16.090 60 4.38 m/h 0 %
14:00:00 broken clouds 17.340 17.340 17.340 48 6.2 m/h 0 %
17:00:00 broken clouds 16.610 16.610 16.610 49 4.02 m/h 0 %
20:00:00 clear sky 11.890 11.890 11.890 81 2.43 m/h 0 %
23:00:00 clear sky 10.210 10.210 10.210 91 2.01 m/h 0 %
29-Jan-2020 (Wed)
02:00:00 clear sky 9.170 9.170 9.170 94 1.24 m/h 0 %
05:00:00 few clouds 8.960 8.960 8.960 92 2.01 m/h 0 %
08:00:00 clear sky 9.800 9.800 9.800 84 1.79 m/h 0 %
11:00:00 clear sky 16.000 16.000 16.000 53 2.44 m/h 0 %
14:00:00 clear sky 19.370 19.370 19.370 36 2.48 m/h 0 %
17:00:00 clear sky 17.900 17.900 17.900 41 3.08 m/h 0 %
20:00:00 clear sky 13.060 13.060 13.060 56 3.14 m/h 0 %
23:00:00 clear sky 11.990 11.990 11.990 59 2.21 m/h 0 %
30-Jan-2020 (Thu)
02:00:00 clear sky 10.220 10.220 10.220 64 1.51 m/h 0 %
05:00:00 clear sky 9.240 9.240 9.240 66 0.34 m/h 0 %
08:00:00 clear sky 10.340 10.340 10.340 61 1.36 m/h 0 %
11:00:00 few clouds 17.070 17.070 17.070 36 2.4 m/h 0 %
14:00:00 clear sky 19.780 19.780 19.780 24 3.13 m/h 0 %
17:00:00 clear sky 17.520 17.520 17.520 27 2.42 m/h 0 %
20:00:00 clear sky 13.030 13.030 13.030 34 2.37 m/h 0 %
23:00:00 clear sky 11.920 11.920 11.920 37 1.66 m/h 0 %
31-Jan-2020 (Fri)
02:00:00 clear sky 10.820 10.820 10.820 40 1.22 m/h 0 %
05:00:00 clear sky 10.110 10.110 10.110 42 1.61 m/h 0 %
08:00:00 clear sky 10.680 10.680 10.680 44 0.78 m/h 0 %
11:00:00 clear sky 18.040 18.040 18.040 28 1.12 m/h 0 %
14:00:00 few clouds 20.350 20.350 20.350 26 1.67 m/h 0 %
17:00:00 few clouds 18.770 18.770 18.770 31 1.49 m/h 0 %
20:00:00 clear sky 13.750 13.750 13.750 39 2.8 m/h 0 %
23:00:00 clear sky 12.250 12.250 12.250 40 2.32 m/h 0 %
01-Feb-2020 (Sat)
02:00:00 clear sky 10.980 10.980 10.980 43 1.85 m/h 0 %
05:00:00 clear sky 10.110 10.110 10.110 45 1.39 m/h 0 %
08:00:00 clear sky 11.010 11.010 11.010 45 1.18 m/h 0 %
11:00:00 clear sky 18.760 18.760 18.760 28 1.66 m/h 0 %
14:00:00 clear sky 21.510 21.510 21.510 20 1.62 m/h 0 %
17:00:00 clear sky 19.470 19.470 19.470 25 1.57 m/h 0 %

Famous Cities (61)